createdAt,value
2023-03-18T00:01:07.490Z,27.55
2023-03-18T00:03:46.733Z,26.23
2023-03-18T00:06:26.745Z,25.13
2023-03-18T00:09:04.654Z,25.80
2023-03-18T00:11:41.468Z,22.17
2023-03-18T00:14:20.911Z,30.65
2023-03-18T00:17:03.212Z,25.85
2023-03-18T00:19:39.726Z,23.03
2023-03-18T00:22:15.574Z,29.02
2023-03-18T00:24:57.462Z,26.48
2023-03-18T00:27:32.335Z,27.15
2023-03-18T00:30:14.488Z,24.97
2023-03-18T00:32:54.359Z,26.73
2023-03-18T00:35:29.709Z,25.88
2023-03-18T00:38:10.660Z,37.25
2023-03-18T00:40:44.356Z,27.40
2023-03-18T00:43:19.738Z,26.35
2023-03-18T00:45:58.918Z,28.17
2023-03-18T00:48:36.974Z,25.90
2023-03-18T00:51:14.630Z,32.72
2023-03-18T00:53:56.673Z,27.23
2023-03-18T00:56:36.316Z,26.75
2023-03-18T00:59:13.889Z,30.00
2023-03-18T01:01:54.059Z,32.50
2023-03-18T01:04:44.793Z,24.70
2023-03-18T01:07:26.452Z,26.92
2023-03-18T01:10:04.038Z,24.40
2023-03-18T01:12:42.398Z,27.35
2023-03-18T01:15:23.801Z,36.65
2023-03-18T01:18:04.479Z,21.23
2023-03-18T01:20:40.161Z,25.08
2023-03-18T01:23:20.804Z,23.75
2023-03-18T01:26:01.857Z,24.30
2023-03-18T01:28:43.872Z,20.40
2023-03-18T01:31:22.414Z,22.85
2023-03-18T01:34:00.770Z,21.10
2023-03-18T01:36:44.508Z,20.50
2023-03-18T01:39:22.811Z,20.33
2023-03-18T01:42:00.586Z,17.50
2023-03-18T01:44:42.492Z,20.35
2023-03-18T01:47:16.112Z,16.48
2023-03-18T01:52:38.342Z,16.50
2023-03-18T01:55:18.590Z,15.32
2023-03-18T01:57:55.074Z,18.65
2023-03-18T02:00:33.941Z,19.90
2023-03-18T02:03:10.287Z,15.27
2023-03-18T02:05:45.792Z,18.52
2023-03-18T02:08:25.531Z,19.65
2023-03-18T02:11:04.630Z,15.80
2023-03-18T02:13:44.721Z,16.55
2023-03-18T02:16:22.179Z,15.68
2023-03-18T02:18:59.806Z,14.80
2023-03-18T02:22:04.079Z,15.60
2023-03-18T02:24:48.080Z,14.10
2023-03-18T02:27:30.352Z,12.40
2023-03-18T02:30:09.281Z,18.10
2023-03-18T02:32:48.648Z,15.80
2023-03-18T02:35:25.862Z,14.93
2023-03-18T02:38:02.325Z,14.17
2023-03-18T02:40:37.857Z,12.95
2023-03-18T02:43:39.184Z,14.60
2023-03-18T02:46:23.600Z,14.77
2023-03-18T02:48:59.395Z,15.55
2023-03-18T02:51:38.159Z,15.10
2023-03-18T02:54:17.407Z,15.05
2023-03-18T02:56:53.354Z,15.45
2023-03-18T02:59:35.003Z,13.45
2023-03-18T03:02:10.422Z,11.67
2023-03-18T03:04:48.331Z,11.65
2023-03-18T03:07:30.433Z,14.90
2023-03-18T03:10:08.313Z,13.80
2023-03-18T03:12:45.766Z,12.35
2023-03-18T03:15:28.607Z,14.77
2023-03-18T03:18:08.406Z,11.77
2023-03-18T03:20:49.478Z,17.33
2023-03-18T03:23:25.868Z,14.77
2023-03-18T03:26:03.509Z,13.35
2023-03-18T03:28:43.813Z,14.02
2023-03-18T03:31:21.519Z,20.90
2023-03-18T03:33:57.934Z,25.73
2023-03-18T03:36:34.800Z,20.02
2023-03-18T03:39:12.681Z,15.95
2023-03-18T03:41:49.216Z,25.20
2023-03-18T03:44:26.500Z,15.60
2023-03-18T03:47:03.604Z,12.50
2023-03-18T03:49:43.353Z,15.13
2023-03-18T03:52:20.588Z,12.32
2023-03-18T03:54:58.545Z,14.25
2023-03-18T03:57:34.195Z,11.15
2023-03-18T04:03:03.610Z,8.57
2023-03-18T04:05:42.060Z,9.50
2023-03-18T04:08:20.223Z,10.90
2023-03-18T04:11:01.195Z,9.85
2023-03-18T04:13:37.909Z,11.70
2023-03-18T04:16:16.180Z,14.02
2023-03-18T04:18:51.465Z,13.07
2023-03-18T04:21:34.106Z,11.43
2023-03-18T04:24:14.575Z,11.95
2023-03-18T04:26:52.025Z,9.93
2023-03-18T04:29:28.432Z,8.38
2023-03-18T04:32:05.202Z,13.23
2023-03-18T04:34:43.811Z,10.50
2023-03-18T04:37:25.315Z,10.07
2023-03-18T04:40:06.580Z,10.30
2023-03-18T04:42:42.968Z,11.65
2023-03-18T04:45:21.818Z,9.75
2023-03-18T04:47:59.152Z,9.00
2023-03-18T04:50:42.048Z,6.55
2023-03-18T04:53:27.279Z,11.05
2023-03-18T04:56:05.846Z,8.45
2023-03-18T04:58:54.006Z,7.35
2023-03-18T05:01:35.647Z,10.82
2023-03-18T05:04:13.784Z,9.27
2023-03-18T05:06:59.001Z,9.05
2023-03-18T05:09:44.215Z,12.10
2023-03-18T05:12:25.640Z,9.60
2023-03-18T05:15:03.969Z,14.25
2023-03-18T05:17:41.421Z,12.35
2023-03-18T05:20:21.056Z,11.15
2023-03-18T05:22:57.616Z,10.82
2023-03-18T05:25:44.230Z,12.90
2023-03-18T05:28:21.063Z,7.87
2023-03-18T05:31:11.861Z,9.90
2023-03-18T05:33:52.358Z,12.57
2023-03-18T05:36:27.053Z,11.48
2023-03-18T05:39:15.044Z,9.65
2023-03-18T05:41:57.674Z,9.15
2023-03-18T05:44:36.840Z,9.23
2023-03-18T05:47:20.243Z,10.82
2023-03-18T05:50:23.546Z,9.27
2023-03-18T05:53:02.099Z,8.95
2023-03-18T05:55:47.019Z,7.78
2023-03-18T05:58:32.331Z,12.07
2023-03-18T06:01:26.987Z,8.00
2023-03-18T06:04:04.271Z,8.50
2023-03-18T06:06:50.272Z,12.57
2023-03-18T06:09:27.690Z,15.10
2023-03-18T06:12:04.074Z,9.38
2023-03-18T06:14:44.418Z,9.52
2023-03-18T06:17:26.878Z,12.18
2023-03-18T06:20:03.044Z,9.40
2023-03-18T06:22:45.453Z,12.63
2023-03-18T06:25:29.132Z,12.00
2023-03-18T06:28:15.403Z,12.75
2023-03-18T06:30:58.063Z,15.95
2023-03-18T06:33:44.651Z,10.15
2023-03-18T06:36:22.001Z,9.57
2023-03-18T06:39:02.497Z,8.77
2023-03-18T06:41:45.055Z,13.50
2023-03-18T06:44:50.807Z,12.57
2023-03-18T06:47:31.813Z,8.75
2023-03-18T06:50:16.492Z,10.35
2023-03-18T06:52:58.782Z,8.25
2023-03-18T06:55:41.070Z,10.30
2023-03-18T06:58:18.935Z,9.00
2023-03-18T07:01:21.406Z,9.02
2023-03-18T07:04:03.879Z,8.95
2023-03-18T07:06:46.727Z,5.88
2023-03-18T07:09:25.973Z,6.45
2023-03-18T07:12:04.672Z,8.85
2023-03-18T07:14:41.922Z,11.73
2023-03-18T07:17:18.621Z,6.97
2023-03-18T07:19:57.455Z,7.15
2023-03-18T07:22:40.514Z,11.38
2023-03-18T07:25:22.979Z,10.45
2023-03-18T07:28:04.144Z,6.45
2023-03-18T07:30:40.823Z,8.33
2023-03-18T07:33:20.750Z,9.20
2023-03-18T07:36:03.432Z,6.68
2023-03-18T07:38:37.116Z,6.75
2023-03-18T07:41:20.941Z,7.80
2023-03-18T07:43:59.825Z,6.30
2023-03-18T07:46:36.359Z,7.80
2023-03-18T07:49:31.709Z,5.68
2023-03-18T07:52:32.483Z,5.10
2023-03-18T07:58:22.423Z,6.93
2023-03-18T08:04:11.666Z,7.47
2023-03-18T08:06:50.047Z,8.35
2023-03-18T08:09:31.717Z,9.50
2023-03-18T08:12:09.458Z,7.20
2023-03-18T08:14:56.794Z,7.50
2023-03-18T08:17:32.362Z,7.88
2023-03-18T08:20:11.014Z,8.52
2023-03-18T08:23:14.869Z,6.63
2023-03-18T08:25:54.387Z,6.00
2023-03-18T08:28:33.415Z,5.80
2023-03-18T08:31:19.042Z,4.82
2023-03-18T08:34:01.086Z,7.77
2023-03-18T08:36:38.504Z,7.68
2023-03-18T08:39:17.035Z,5.43
2023-03-18T08:41:53.011Z,8.38
2023-03-18T08:47:09.530Z,6.82
2023-03-18T08:49:46.722Z,7.47
2023-03-18T08:52:26.078Z,4.95
2023-03-18T08:55:02.744Z,9.95
2023-03-18T08:57:44.098Z,6.63
2023-03-18T09:00:23.927Z,6.97
2023-03-18T09:02:59.347Z,8.30
2023-03-18T09:05:41.622Z,9.45
2023-03-18T09:08:19.369Z,7.80
2023-03-18T09:10:58.830Z,6.88
2023-03-18T09:13:39.992Z,12.52
2023-03-18T09:16:17.854Z,5.60
2023-03-18T09:18:56.492Z,6.40
2023-03-18T09:21:40.066Z,7.88
2023-03-18T09:24:11.227Z,6.75
2023-03-18T09:26:47.054Z,6.85
2023-03-18T09:29:25.063Z,5.85
2023-03-18T09:32:02.783Z,6.28
2023-03-18T09:34:50.135Z,8.20
2023-03-18T09:37:36.110Z,5.13
2023-03-18T09:40:19.989Z,8.55
2023-03-18T09:42:56.787Z,8.63
2023-03-18T09:45:38.156Z,7.38
2023-03-18T09:48:47.468Z,8.65
2023-03-18T09:51:31.387Z,14.65
2023-03-18T09:54:13.500Z,9.70
2023-03-18T09:56:49.423Z,6.00
2023-03-18T09:59:26.058Z,8.00
2023-03-18T10:02:02.120Z,7.55
2023-03-18T10:04:40.268Z,8.87
2023-03-18T10:07:18.002Z,6.00
2023-03-18T10:10:00.276Z,6.63
2023-03-18T10:12:40.142Z,5.33
2023-03-18T10:15:19.495Z,7.17
2023-03-18T10:18:17.394Z,6.93
2023-03-18T10:20:56.851Z,6.00
2023-03-18T10:26:24.785Z,6.90
2023-03-18T10:38:30.238Z,6.13
2023-03-18T10:44:50.657Z,6.20
2023-03-18T10:48:13.646Z,7.43
2023-03-18T10:51:19.318Z,5.85
2023-03-18T10:54:19.288Z,7.05
2023-03-18T10:57:08.698Z,6.95
2023-03-18T11:06:17.858Z,7.10
2023-03-18T11:09:22.032Z,5.85
2023-03-18T11:12:07.903Z,7.85
2023-03-18T11:15:05.893Z,7.68
2023-03-18T11:17:41.602Z,17.40
2023-03-18T11:22:04.856Z,7.95
2023-03-18T11:24:43.736Z,9.23
2023-03-18T11:27:38.796Z,7.03
2023-03-18T11:30:52.204Z,7.80
2023-03-18T11:33:29.699Z,7.35
2023-03-18T11:36:10.430Z,7.40
2023-03-18T11:38:44.076Z,12.27
2023-03-18T11:41:26.660Z,9.67
2023-03-18T11:44:02.755Z,7.20
2023-03-18T11:46:44.344Z,7.80
2023-03-18T11:49:24.447Z,7.65
2023-03-18T11:52:21.381Z,6.07
2023-03-18T11:54:57.880Z,6.63
2023-03-18T11:57:42.311Z,10.17
2023-03-18T12:00:27.867Z,9.90
2023-03-18T12:03:11.414Z,11.90
2023-03-18T12:05:53.823Z,7.45
2023-03-18T12:08:35.351Z,6.70
2023-03-18T12:11:15.542Z,7.75
2023-03-18T12:14:04.845Z,5.88
2023-03-18T12:17:06.236Z,19.08
2023-03-18T12:20:02.330Z,10.07
2023-03-18T12:22:36.046Z,8.27
2023-03-18T12:25:30.729Z,7.50
2023-03-18T12:28:07.089Z,9.50
2023-03-18T12:30:54.701Z,6.70
2023-03-18T12:34:01.074Z,6.60
2023-03-18T12:36:44.917Z,10.05
2023-03-18T12:39:48.174Z,6.97
2023-03-18T12:42:31.036Z,16.08
2023-03-18T12:45:06.379Z,10.40
2023-03-18T12:47:44.726Z,7.00
2023-03-18T12:50:23.477Z,15.52
2023-03-18T12:53:03.085Z,7.80
2023-03-18T12:55:41.575Z,8.65
2023-03-18T12:58:21.019Z,10.75
2023-03-18T13:01:07.924Z,7.20
2023-03-18T13:03:44.356Z,9.10
2023-03-18T13:06:23.838Z,9.10
2023-03-18T13:09:29.318Z,7.38
2023-03-18T13:12:13.860Z,9.07
2023-03-18T13:14:55.142Z,9.15
2023-03-18T13:17:37.471Z,8.32
2023-03-18T13:20:17.550Z,9.07
2023-03-18T13:23:12.934Z,9.10
2023-03-18T13:26:00.255Z,6.95
2023-03-18T13:28:46.197Z,7.45
2023-03-18T13:31:29.091Z,10.80
2023-03-18T13:34:36.078Z,9.75
2023-03-18T13:37:33.453Z,6.25
2023-03-18T13:40:50.830Z,7.97
2023-03-18T13:43:30.412Z,10.77
2023-03-18T13:46:07.634Z,8.07
2023-03-18T13:48:44.564Z,7.67
2023-03-18T13:52:01.632Z,8.95
2023-03-18T13:54:43.575Z,11.70
2023-03-18T13:57:37.133Z,9.00
2023-03-18T14:00:56.659Z,8.38
2023-03-18T14:03:34.485Z,12.20
2023-03-18T14:06:45.113Z,10.00
2023-03-18T14:09:51.535Z,9.02
2023-03-18T14:12:44.188Z,8.90
2023-03-18T14:15:18.614Z,11.48
2023-03-18T14:17:59.069Z,8.75
2023-03-18T14:20:43.221Z,8.80
2023-03-18T14:23:37.692Z,8.98
2023-03-18T14:26:22.664Z,9.88
2023-03-18T14:29:07.212Z,9.30
2023-03-18T14:31:59.805Z,10.43
2023-03-18T14:34:41.634Z,11.63
2023-03-18T14:37:34.669Z,11.95
2023-03-18T14:40:11.735Z,10.77
2023-03-18T14:42:56.461Z,9.90
2023-03-18T14:45:36.714Z,11.10
2023-03-18T14:48:17.926Z,11.25
2023-03-18T14:50:57.312Z,11.95
2023-03-18T14:53:35.022Z,9.45
2023-03-18T14:56:19.811Z,9.77
2023-03-18T14:58:56.884Z,11.90
2023-03-18T15:01:35.732Z,8.85
2023-03-18T15:04:17.457Z,10.05
2023-03-18T15:06:55.965Z,16.55
2023-03-18T15:09:38.081Z,9.32
2023-03-18T15:12:21.586Z,13.30
2023-03-18T15:15:00.977Z,12.93
2023-03-18T15:17:35.434Z,8.65
2023-03-18T15:20:15.732Z,9.10
2023-03-18T15:22:51.454Z,11.52
2023-03-18T15:25:32.876Z,11.02
2023-03-18T15:28:07.483Z,9.77
2023-03-18T15:30:43.388Z,9.40
2023-03-18T15:36:03.285Z,14.40
2023-03-18T15:38:40.455Z,10.85
2023-03-18T15:41:18.540Z,12.80
2023-03-18T15:43:54.995Z,11.60
2023-03-18T15:46:31.470Z,13.00
2023-03-18T15:49:07.351Z,11.77
2023-03-18T15:51:50.035Z,15.93
2023-03-18T15:54:30.155Z,10.85
2023-03-18T15:57:16.110Z,13.50
2023-03-18T15:59:54.323Z,11.90
2023-03-18T16:02:28.423Z,10.07
2023-03-18T16:05:11.965Z,11.50
2023-03-18T16:07:48.565Z,9.35
2023-03-18T16:10:24.361Z,12.00
2023-03-18T16:13:07.802Z,11.13
2023-03-18T16:15:46.306Z,12.25
2023-03-18T16:18:36.731Z,11.83
2023-03-18T16:21:14.426Z,15.68
2023-03-18T16:23:52.126Z,12.35
2023-03-18T16:26:28.452Z,15.02
2023-03-18T16:29:09.198Z,11.80
2023-03-18T16:31:45.191Z,12.27
2023-03-18T16:34:22.882Z,12.60
2023-03-18T16:37:00.738Z,15.93
2023-03-18T16:39:36.749Z,23.83
2023-03-18T16:42:14.107Z,23.60
2023-03-18T16:44:48.672Z,23.93
2023-03-18T16:47:29.635Z,22.50
2023-03-18T16:50:08.798Z,18.90
2023-03-18T16:52:46.157Z,17.58
2023-03-18T16:57:59.087Z,12.48
2023-03-18T17:00:36.630Z,11.73
2023-03-18T17:03:18.513Z,13.52
2023-03-18T17:05:55.000Z,13.43
2023-03-18T17:08:31.133Z,10.93
2023-03-18T17:11:13.638Z,11.27
2023-03-18T17:13:52.586Z,14.90
2023-03-18T17:16:33.445Z,12.55
2023-03-18T17:19:30.163Z,15.35
2023-03-18T17:22:08.426Z,15.73
2023-03-18T17:24:45.154Z,18.17
2023-03-18T17:27:22.624Z,13.68
2023-03-18T17:29:57.926Z,20.85
2023-03-18T17:35:23.976Z,26.33
2023-03-18T17:37:59.791Z,16.03
2023-03-18T17:40:37.700Z,25.63
2023-03-18T17:43:12.727Z,20.40
2023-03-18T17:45:51.030Z,16.20
2023-03-18T17:48:26.624Z,15.07
2023-03-18T17:51:05.339Z,18.30
2023-03-18T17:53:40.617Z,15.13
2023-03-18T17:56:17.233Z,18.55
2023-03-18T17:58:56.456Z,15.75
2023-03-18T18:01:31.917Z,15.18
2023-03-18T18:04:09.992Z,13.55
2023-03-18T18:06:54.211Z,14.15
2023-03-18T18:09:30.936Z,13.30
2023-03-18T18:12:08.573Z,16.70
2023-03-18T18:14:46.515Z,17.93
2023-03-18T18:17:22.567Z,15.38
2023-03-18T18:22:51.278Z,18.33
2023-03-18T18:25:42.789Z,20.70
2023-03-18T18:28:21.484Z,20.70
2023-03-18T18:30:58.408Z,35.25
2023-03-18T18:33:34.465Z,34.45
2023-03-18T18:36:12.644Z,57.55
2023-03-18T18:38:54.920Z,64.85
2023-03-18T18:41:34.478Z,88.15
2023-03-18T18:44:08.472Z,79.40
2023-03-18T18:46:48.052Z,61.95
2023-03-18T18:49:27.812Z,37.40
2023-03-18T18:52:06.550Z,32.20
2023-03-18T18:54:48.681Z,22.45
2023-03-18T18:57:30.825Z,29.13
2023-03-18T19:00:11.690Z,26.00
2023-03-18T19:02:48.351Z,22.40
2023-03-18T19:05:26.013Z,21.48
2023-03-18T19:08:06.456Z,22.60
2023-03-18T19:10:48.593Z,24.80
2023-03-18T19:13:32.940Z,25.05
2023-03-18T19:16:12.208Z,22.75
2023-03-18T19:18:48.986Z,24.25
2023-03-18T19:21:35.613Z,24.40
2023-03-18T19:24:25.926Z,24.15
2023-03-18T19:27:02.001Z,26.38
2023-03-18T19:29:42.663Z,20.90
2023-03-18T19:32:21.965Z,44.50
2023-03-18T19:34:59.367Z,37.25
2023-03-18T19:37:36.921Z,33.65
2023-03-18T19:40:30.291Z,27.95
2023-03-18T19:43:07.027Z,24.27
2023-03-18T19:45:46.015Z,22.30
2023-03-18T19:48:24.042Z,29.67
2023-03-18T19:51:01.996Z,26.55
2023-03-18T19:53:40.607Z,22.17
2023-03-18T19:56:25.067Z,23.05
2023-03-18T19:59:17.038Z,25.30
2023-03-18T20:01:59.018Z,29.90
2023-03-18T20:04:38.743Z,24.00
2023-03-18T20:07:14.934Z,24.35
2023-03-18T20:12:33.120Z,26.00
2023-03-18T20:15:16.327Z,25.65
2023-03-18T20:17:54.837Z,25.70
2023-03-18T20:20:33.935Z,28.50
2023-03-18T20:23:10.421Z,26.45
2023-03-18T20:25:48.990Z,27.33
2023-03-18T20:28:26.748Z,26.00
2023-03-18T20:31:06.714Z,27.02
2023-03-18T20:33:49.091Z,32.28
2023-03-18T20:36:26.404Z,29.95
2023-03-18T20:39:02.420Z,34.95
2023-03-18T20:41:39.541Z,36.30
2023-03-18T20:44:17.060Z,33.17
2023-03-18T20:46:52.570Z,33.13
2023-03-18T20:49:33.786Z,41.53
2023-03-18T20:52:10.240Z,36.72
2023-03-18T20:54:49.562Z,35.33
2023-03-18T20:57:28.151Z,38.72
2023-03-18T21:00:07.889Z,39.85
2023-03-18T21:02:45.131Z,31.85
2023-03-18T21:05:26.019Z,36.85
2023-03-18T21:08:05.054Z,39.80
2023-03-18T21:10:40.392Z,40.28
2023-03-18T21:13:22.000Z,39.50
2023-03-18T21:15:59.828Z,38.72
2023-03-18T21:18:36.067Z,40.17
2023-03-18T21:21:20.814Z,39.42
2023-03-18T21:23:58.120Z,30.55
2023-03-18T21:26:34.043Z,30.17
2023-03-18T21:29:10.361Z,32.63
2023-03-18T21:31:49.265Z,25.90
2023-03-18T21:34:28.058Z,23.05
2023-03-18T21:37:24.020Z,24.23
2023-03-18T21:40:04.205Z,28.33
2023-03-18T21:42:57.660Z,30.25
2023-03-18T21:45:39.654Z,32.45
2023-03-18T21:48:18.041Z,30.02
2023-03-18T21:50:57.175Z,26.93
2023-03-18T21:53:37.130Z,27.90
2023-03-18T21:56:20.193Z,24.70
2023-03-18T21:58:59.056Z,28.83
2023-03-18T22:01:40.096Z,27.92
2023-03-18T22:04:19.028Z,27.80
2023-03-18T22:06:57.247Z,29.80
2023-03-18T22:09:36.959Z,28.30
2023-03-18T22:12:20.715Z,31.17
2023-03-18T22:15:01.828Z,27.70
2023-03-18T22:17:42.052Z,28.95
2023-03-18T22:20:21.566Z,26.20
2023-03-18T22:23:04.964Z,28.45
2023-03-18T22:25:42.011Z,27.23
2023-03-18T22:28:23.155Z,34.53
2023-03-18T22:31:02.766Z,31.15
2023-03-18T22:33:45.043Z,34.67
2023-03-18T22:39:09.278Z,31.33
2023-03-18T22:41:47.198Z,32.30
2023-03-18T22:44:21.282Z,34.22
2023-03-18T22:47:04.132Z,32.42
2023-03-18T22:49:39.566Z,37.25
2023-03-18T22:52:24.274Z,34.05
2023-03-18T22:55:01.081Z,31.70
2023-03-18T22:57:44.536Z,36.97
2023-03-18T23:00:26.307Z,33.67
2023-03-18T23:03:09.583Z,34.20
2023-03-18T23:05:47.234Z,33.33
2023-03-18T23:08:22.706Z,35.10
2023-03-18T23:11:02.705Z,33.15
2023-03-18T23:13:44.202Z,28.90
2023-03-18T23:16:21.728Z,34.30
2023-03-18T23:19:03.797Z,27.02
2023-03-18T23:21:42.859Z,32.55
2023-03-18T23:24:20.688Z,28.87
2023-03-18T23:26:58.470Z,31.45
2023-03-18T23:29:35.977Z,27.60
2023-03-18T23:32:12.863Z,27.80
2023-03-18T23:34:54.243Z,29.40
2023-03-18T23:37:29.702Z,25.50
2023-03-18T23:40:05.612Z,28.73
2023-03-18T23:42:41.550Z,31.77
2023-03-18T23:45:19.889Z,26.00
2023-03-18T23:47:59.735Z,27.80
2023-03-18T23:50:37.403Z,28.30
2023-03-18T23:53:13.695Z,29.48
2023-03-18T23:55:49.237Z,33.45
2023-03-18T23:58:24.955Z,39.45
